Weather at Malo Konjari Sport Airfield

Public forecast

Using degrees Celsius for public forecast. Weather courtesy of forecast.io.

Closest aviation weather report (METAR) to Malo Konjari Sport Airfield

Closest report is Ohrid St. Paul the Apostle Airport, 33.2 nm (61.5 km) WSW. Retrieved 2022/01/17 15:30 UTC (26 minutes ago):

LWOH 171530Z 31005KT 9999 BKN040 03/M00 Q1019

Closest aviation forecast (TAF) to Malo Konjari Sport Airfield

Closest forecast is Ohrid St. Paul the Apostle Airport, 33.2 nm (61.5 km) WSW. Retrieved 2022/01/17 15:30 UTC (26 minutes ago):

TAF LWOH 171430Z 1715/1815 32006KT 9999 BKN050 TEMPO 1715/1717 -RA TEMPO 1720/1802 5000 -SN OVC035